sensor_id;sensor_type;location;lat;lon;timestamp;pressure;altitude;pressure_sealevel;temperature;humidity
25420;BME280;13354;48.174;11.566;2024-03-23T00:55:11;95125.41;;;13.05;53.06
25420;BME280;13354;48.174;11.566;2024-03-23T00:57:37;95110.28;;;13.06;53.02
25420;BME280;13354;48.174;11.566;2024-03-23T01:00:03;95114.03;;;13.17;52.61
25420;BME280;13354;48.174;11.566;2024-03-23T01:02:31;95101.56;;;13.17;52.17
25420;BME280;13354;48.174;11.566;2024-03-23T01:04:56;95108.53;;;13.18;52.04
25420;BME280;13354;48.174;11.566;2024-03-23T01:07:21;95107.44;;;13.26;51.74
25420;BME280;13354;48.174;11.566;2024-03-23T01:09:47;95104.09;;;13.31;51.80
25420;BME280;13354;48.174;11.566;2024-03-23T01:12:12;95090.44;;;13.27;51.53
25420;BME280;13354;48.174;11.566;2024-03-23T01:14:38;95091.50;;;13.26;51.69
25420;BME280;13354;48.174;11.566;2024-03-23T01:17:03;95091.69;;;13.24;51.63
25420;BME280;13354;48.174;11.566;2024-03-23T01:19:28;95088.53;;;13.34;51.47
25420;BME280;13354;48.174;11.566;2024-03-23T01:21:54;95083.78;;;13.36;51.28
25420;BME280;13354;48.174;11.566;2024-03-23T01:24:19;95087.19;;;13.25;52.02
25420;BME280;13354;48.174;11.566;2024-03-23T01:26:45;95083.75;;;13.18;51.97
25420;BME280;13354;48.174;11.566;2024-03-23T01:29:10;95077.19;;;13.20;51.70
25420;BME280;13354;48.174;11.566;2024-03-23T01:31:36;95075.34;;;13.21;51.73
25420;BME280;13354;48.174;11.566;2024-03-23T01:34:01;95075.88;;;13.11;52.21
25420;BME280;13354;48.174;11.566;2024-03-23T01:36:28;95074.59;;;13.14;52.08
25420;BME280;13354;48.174;11.566;2024-03-23T01:38:53;95073.00;;;13.13;52.10
25420;BME280;13354;48.174;11.566;2024-03-23T01:41:19;95071.88;;;13.20;51.82
25420;BME280;13354;48.174;11.566;2024-03-23T01:43:45;95064.44;;;13.29;51.81
25420;BME280;13354;48.174;11.566;2024-03-23T01:46:11;95058.22;;;13.17;52.01
25420;BME280;13354;48.174;11.566;2024-03-23T01:48:36;95061.47;;;13.19;51.95
25420;BME280;13354;48.174;11.566;2024-03-23T01:51:01;95058.22;;;13.17;51.87
25420;BME280;13354;48.174;11.566;2024-03-23T01:53:28;95064.22;;;13.12;52.29
25420;BME280;13354;48.174;11.566;2024-03-23T01:55:54;95060.50;;;13.13;52.17
25420;BME280;13354;48.174;11.566;2024-03-23T01:58:19;95052.53;;;13.13;52.32
25420;BME280;13354;48.174;11.566;2024-03-23T02:00:45;95055.88;;;13.09;52.05
25420;BME280;13354;48.174;11.566;2024-03-23T02:03:24;95055.88;;;13.09;52.43
25420;BME280;13354;48.174;11.566;2024-03-23T02:05:50;95045.00;;;13.10;52.48
25420;BME280;13354;48.174;11.566;2024-03-23T02:08:17;95037.03;;;13.10;52.40
25420;BME280;13354;48.174;11.566;2024-03-23T02:10:43;95038.75;;;13.04;52.95
25420;BME280;13354;48.174;11.566;2024-03-23T02:13:09;95031.47;;;13.00;53.27
25420;BME280;13354;48.174;11.566;2024-03-23T02:15:34;95030.41;;;13.01;52.90
25420;BME280;13354;48.174;11.566;2024-03-23T02:18:00;95034.19;;;12.93;53.12
25420;BME280;13354;48.174;11.566;2024-03-23T02:20:25;95032.34;;;12.94;53.30
25420;BME280;13354;48.174;11.566;2024-03-23T02:22:55;95023.56;;;12.93;53.33
25420;BME280;13354;48.174;11.566;2024-03-23T02:25:20;95016.03;;;12.90;53.53
25420;BME280;13354;48.174;11.566;2024-03-23T02:27:46;95016.84;;;12.91;53.43
25420;BME280;13354;48.174;11.566;2024-03-23T02:30:11;95011.44;;;12.97;53.52
25420;BME280;13354;48.174;11.566;2024-03-23T02:32:37;95006.06;;;12.86;53.75
25420;BME280;13354;48.174;11.566;2024-03-23T02:35:02;95010.13;;;12.88;53.56
25420;BME280;13354;48.174;11.566;2024-03-23T02:37:27;95001.19;;;12.82;53.83
25420;BME280;13354;48.174;11.566;2024-03-23T02:39:53;95002.69;;;12.78;54.01
25420;BME280;13354;48.174;11.566;2024-03-23T02:42:18;95004.38;;;12.73;54.36
25420;BME280;13354;48.174;11.566;2024-03-23T02:44:44;94997.06;;;12.68;54.34
25420;BME280;13354;48.174;11.566;2024-03-23T02:47:10;94994.41;;;12.68;54.37
25420;BME280;13354;48.174;11.566;2024-03-23T02:49:35;94991.63;;;12.63;54.68
25420;BME280;13354;48.174;11.566;2024-03-23T02:52:01;94984.66;;;12.62;54.75
25420;BME280;13354;48.174;11.566;2024-03-23T02:54:26;94994.13;;;12.58;55.06
25420;BME280;13354;48.174;11.566;2024-03-23T02:56:52;94984.41;;;12.52;55.24
25420;BME280;13354;48.174;11.566;2024-03-23T02:59:17;94987.38;;;12.55;55.19
25420;BME280;13354;48.174;11.566;2024-03-23T03:01:43;94987.84;;;12.52;55.34
25420;BME280;13354;48.174;11.566;2024-03-23T03:04:08;94983.34;;;12.53;55.64
25420;BME280;13354;48.174;11.566;2024-03-23T03:06:33;94977.06;;;12.47;55.74
25420;BME280;13354;48.174;11.566;2024-03-23T03:08:59;94973.78;;;12.52;55.67
25420;BME280;13354;48.174;11.566;2024-03-23T03:11:24;94984.16;;;12.53;55.91
25420;BME280;13354;48.174;11.566;2024-03-23T03:13:50;94977.75;;;12.43;55.94
25420;BME280;13354;48.174;11.566;2024-03-23T03:16:15;94968.16;;;12.42;56.30
25420;BME280;13354;48.174;11.566;2024-03-23T03:18:41;94968.97;;;12.42;56.22
25420;BME280;13354;48.174;11.566;2024-03-23T03:21:06;94968.66;;;12.50;56.10
25420;BME280;13354;48.174;11.566;2024-03-23T03:23:39;94968.16;;;12.42;56.51
25420;BME280;13354;48.174;11.566;2024-03-23T03:26:05;94967.56;;;12.40;56.69
25420;BME280;13354;48.174;11.566;2024-03-23T03:28:31;94964.91;;;12.40;56.52
25420;BME280;13354;48.174;11.566;2024-03-23T03:30:58;94962.69;;;12.37;56.84
25420;BME280;13354;48.174;11.566;2024-03-23T03:33:24;94965.50;;;12.42;56.76
25420;BME280;13354;48.174;11.566;2024-03-23T03:35:49;94953.41;;;12.27;57.37
25420;BME280;13354;48.174;11.566;2024-03-23T03:38:18;94959.75;;;12.26;57.49
25420;BME280;13354;48.174;11.566;2024-03-23T03:40:43;94949.72;;;12.28;57.38
25420;BME280;13354;48.174;11.566;2024-03-23T03:43:08;94946.25;;;12.28;57.36
25420;BME280;13354;48.174;11.566;2024-03-23T03:45:34;94941.22;;;12.20;57.75
25420;BME280;13354;48.174;11.566;2024-03-23T03:47:59;94937.31;;;12.22;57.84
25420;BME280;13354;48.174;11.566;2024-03-23T03:50:25;94948.66;;;12.11;58.15
25420;BME280;13354;48.174;11.566;2024-03-23T03:52:50;94944.00;;;12.06;58.08
25420;BME280;13354;48.174;11.566;2024-03-23T03:55:16;94931.78;;;12.05;58.04
25420;BME280;13354;48.174;11.566;2024-03-23T03:57:41;94935.47;;;12.04;58.50
25420;BME280;13354;48.174;11.566;2024-03-23T04:00:07;94925.44;;;12.06;58.14
25420;BME280;13354;48.174;11.566;2024-03-23T04:02:39;94920.66;;;11.97;58.29
25420;BME280;13354;48.174;11.566;2024-03-23T04:05:05;94922.47;;;11.96;58.29
25420;BME280;13354;48.174;11.566;2024-03-23T04:07:31;94916.97;;;11.98;58.39
25420;BME280;13354;48.174;11.566;2024-03-23T04:09:56;94920.19;;;12.00;58.27
25420;BME280;13354;48.174;11.566;2024-03-23T04:12:23;94920.66;;;11.97;58.32
25420;BME280;13354;48.174;11.566;2024-03-23T04:14:49;94911.28;;;11.94;58.47
25420;BME280;13354;48.174;11.566;2024-03-23T04:17:14;94900.88;;;11.93;58.78
25420;BME280;13354;48.174;11.566;2024-03-23T04:19:40;94904.78;;;11.90;58.79
25420;BME280;13354;48.174;11.566;2024-03-23T04:22:06;94893.81;;;11.87;58.74
25420;BME280;13354;48.174;11.566;2024-03-23T04:24:31;94881.94;;;11.89;58.59
25420;BME280;13354;48.174;11.566;2024-03-23T04:26:57;94881.63;;;11.79;58.85
25420;BME280;13354;48.174;11.566;2024-03-23T04:29:22;94878.53;;;11.82;58.84
25420;BME280;13354;48.174;11.566;2024-03-23T04:31:48;94878.16;;;11.78;58.78
25420;BME280;13354;48.174;11.566;2024-03-23T04:34:13;94870.38;;;11.83;58.48
25420;BME280;13354;48.174;11.566;2024-03-23T04:36:39;94882.19;;;11.81;58.77
25420;BME280;13354;48.174;11.566;2024-03-23T04:39:05;94868.13;;;11.80;58.85
25420;BME280;13354;48.174;11.566;2024-03-23T04:41:34;94858.94;;;11.83;58.70
25420;BME280;13354;48.174;11.566;2024-03-23T04:43:59;94858.81;;;11.96;58.51
25420;BME280;13354;48.174;11.566;2024-03-23T04:46:24;94854.97;;;11.92;58.33
25420;BME280;13354;48.174;11.566;2024-03-23T04:48:50;94857.19;;;11.95;58.02
25420;BME280;13354;48.174;11.566;2024-03-23T04:51:24;94844.38;;;11.92;57.98
25420;BME280;13354;48.174;11.566;2024-03-23T04:53:49;94843.72;;;11.97;57.98
25420;BME280;13354;48.174;11.566;2024-03-23T04:56:16;94845.09;;;11.99;57.63
25420;BME280;13354;48.174;11.566;2024-03-23T04:58:42;94835.66;;;12.03;57.38
25420;BME280;13354;48.174;11.566;2024-03-23T05:01:08;94835.09;;;12.01;57.31
25420;BME280;13354;48.174;11.566;2024-03-23T05:03:34;94827.72;;;12.03;57.09
25420;BME280;13354;48.174;11.566;2024-03-23T05:05:59;94823.16;;;12.11;56.76
25420;BME280;13354;48.174;11.566;2024-03-23T05:08:25;94828.69;;;12.09;56.55
25420;BME280;13354;48.174;11.566;2024-03-23T05:10:51;94818.94;;;12.21;56.22
25420;BME280;13354;48.174;11.566;2024-03-23T05:13:16;94823.00;;;12.24;56.04
25420;BME280;13354;48.174;11.566;2024-03-23T05:15:41;94817.91;;;12.22;55.59
25420;BME280;13354;48.174;11.566;2024-03-23T05:18:07;94817.91;;;12.22;55.67
25420;BME280;13354;48.174;11.566;2024-03-23T05:20:32;94819.47;;;12.30;55.45
25420;BME280;13354;48.174;11.566;2024-03-23T05:22:58;94809.50;;;12.25;55.36
25420;BME280;13354;48.174;11.566;2024-03-23T05:25:23;94815.72;;;12.19;55.61
25420;BME280;13354;48.174;11.566;2024-03-23T05:27:49;94818.13;;;12.21;55.45
25420;BME280;13354;48.174;11.566;2024-03-23T05:30:15;94808.94;;;12.23;55.59
25420;BME280;13354;48.174;11.566;2024-03-23T05:32:40;94815.84;;;12.24;55.66
25420;BME280;13354;48.174;11.566;2024-03-23T05:35:10;94806.63;;;12.27;55.32
25420;BME280;13354;48.174;11.566;2024-03-23T05:37:35;94808.84;;;12.30;55.31
25420;BME280;13354;48.174;11.566;2024-03-23T05:40:02;94808.31;;;12.21;55.63
25420;BME280;13354;48.174;11.566;2024-03-23T05:42:28;94804.88;;;12.21;55.84
25420;BME280;13354;48.174;11.566;2024-03-23T05:44:54;94806.44;;;12.40;55.34
25420;BME280;13354;48.174;11.566;2024-03-23T05:47:19;94798.84;;;12.44;55.31
25420;BME280;13354;48.174;11.566;2024-03-23T05:49:46;94792.53;;;12.45;55.35
25420;BME280;13354;48.174;11.566;2024-03-23T05:52:12;94792.91;;;12.60;55.06
25420;BME280;13354;48.174;11.566;2024-03-23T05:54:37;94786.91;;;12.53;55.27
25420;BME280;13354;48.174;11.566;2024-03-23T05:57:03;94785.50;;;12.50;55.09
25420;BME280;13354;48.174;11.566;2024-03-23T05:59:29;94782.75;;;12.57;55.17
25420;BME280;13354;48.174;11.566;2024-03-23T06:01:54;94782.41;;;12.65;54.82
25420;BME280;13354;48.174;11.566;2024-03-23T06:04:20;94775.06;;;12.79;54.71
25420;BME280;13354;48.174;11.566;2024-03-23T06:06:46;94768.44;;;13.00;54.51
25420;BME280;13354;48.174;11.566;2024-03-23T06:09:12;94763.16;;;13.35;53.79
25420;BME280;13354;48.174;11.566;2024-03-23T06:11:37;94753.03;;;13.84;52.58
25420;BME280;13354;48.174;11.566;2024-03-23T06:14:03;94744.91;;;14.31;51.01
25420;BME280;13354;48.174;11.566;2024-03-23T06:16:29;94740.28;;;14.84;49.89
25420;BME280;13354;48.174;11.566;2024-03-23T06:18:56;94741.81;;;15.30;48.86
25420;BME280;13354;48.174;11.566;2024-03-23T06:21:21;94734.13;;;15.34;48.76
25420;BME280;13354;48.174;11.566;2024-03-23T06:23:51;94726.44;;;15.54;48.19
25420;BME280;13354;48.174;11.566;2024-03-23T06:26:20;94726.50;;;15.76;47.43
25420;BME280;13354;48.174;11.566;2024-03-23T06:28:47;94725.22;;;16.28;46.68
25420;BME280;13354;48.174;11.566;2024-03-23T06:31:12;94727.75;;;16.66;45.45
25420;BME280;13354;48.174;11.566;2024-03-23T06:33:38;94707.34;;;16.82;45.17
25420;BME280;13354;48.174;11.566;2024-03-23T06:36:05;94693.25;;;17.29;44.20
25420;BME280;13354;48.174;11.566;2024-03-23T06:38:30;94684.63;;;17.65;43.29
25420;BME280;13354;48.174;11.566;2024-03-23T06:40:56;94691.69;;;17.81;42.83
25420;BME280;13354;48.174;11.566;2024-03-23T06:43:21;94678.69;;;18.10;42.16
25420;BME280;13354;48.174;11.566;2024-03-23T06:45:56;94672.78;;;17.50;42.83
25420;BME280;13354;48.174;11.566;2024-03-23T06:48:22;94668.00;;;17.10;43.71
25420;BME280;13354;48.174;11.566;2024-03-23T06:50:48;94673.97;;;16.58;44.43
25420;BME280;13354;48.174;11.566;2024-03-23T06:53:14;94673.69;;;16.05;46.09
25420;BME280;13354;48.174;11.566;2024-03-23T06:55:40;94670.53;;;15.64;46.95
25420;BME280;13354;48.174;11.566;2024-03-23T06:58:05;94663.50;;;15.36;47.64
25420;BME280;13354;48.174;11.566;2024-03-23T07:00:31;94664.44;;;15.08;48.54
25420;BME280;13354;48.174;11.566;2024-03-23T07:02:57;94675.94;;;14.92;49.18
25420;BME280;13354;48.174;11.566;2024-03-23T07:05:23;94669.47;;;14.88;49.71
25420;BME280;13354;48.174;11.566;2024-03-23T07:07:48;94670.94;;;14.95;50.12
25420;BME280;13354;48.174;11.566;2024-03-23T07:10:14;94669.81;;;14.91;50.43
25420;BME280;13354;48.174;11.566;2024-03-23T07:12:39;94665.50;;;14.90;50.60
25420;BME280;13354;48.174;11.566;2024-03-23T07:15:05;94677.16;;;14.84;50.92
25420;BME280;13354;48.174;11.566;2024-03-23T07:17:30;94669.38;;;14.83;50.98
25420;BME280;13354;48.174;11.566;2024-03-23T07:19:57;94666.63;;;14.94;51.17
25420;BME280;13354;48.174;11.566;2024-03-23T07:22:23;94674.63;;;14.94;51.24
25420;BME280;13354;48.174;11.566;2024-03-23T07:24:49;94671.66;;;14.74;51.71
25420;BME280;13354;48.174;11.566;2024-03-23T07:27:14;94673.75;;;14.89;51.58
25420;BME280;13354;48.174;11.566;2024-03-23T07:29:40;94683.03;;;14.69;51.84
25420;BME280;13354;48.174;11.566;2024-03-23T07:32:05;94685.94;;;14.68;52.08
25420;BME280;13354;48.174;11.566;2024-03-23T07:34:31;94679.81;;;14.84;51.75
25420;BME280;13354;48.174;11.566;2024-03-23T07:36:56;94700.88;;;14.86;51.97
25420;BME280;13354;48.174;11.566;2024-03-23T07:39:22;94736.81;;;14.66;52.49
25420;BME280;13354;48.174;11.566;2024-03-23T07:41:47;94735.00;;;14.55;54.09
25420;BME280;13354;48.174;11.566;2024-03-23T07:44:12;94759.53;;;14.29;60.22
25420;BME280;13354;48.174;11.566;2024-03-23T07:46:38;94795.41;;;13.50;63.89
25420;BME280;13354;48.174;11.566;2024-03-23T07:49:07;94786.00;;;13.13;66.18
25420;BME280;13354;48.174;11.566;2024-03-23T07:51:32;94782.63;;;12.94;66.01
25420;BME280;13354;48.174;11.566;2024-03-23T07:53:59;94787.31;;;12.80;68.63
25420;BME280;13354;48.174;11.566;2024-03-23T07:56:24;94790.28;;;12.60;70.50
25420;BME280;13354;48.174;11.566;2024-03-23T07:58:49;94815.59;;;12.26;71.67
25420;BME280;13354;48.174;11.566;2024-03-23T08:01:16;94815.13;;;12.17;74.49
25420;BME280;13354;48.174;11.566;2024-03-23T08:03:43;94799.81;;;12.01;77.47
25420;BME280;13354;48.174;11.566;2024-03-23T08:08:38;94828.75;;;11.59;80.88
25420;BME280;13354;48.174;11.566;2024-03-23T08:11:04;94836.63;;;11.47;83.90
25420;BME280;13354;48.174;11.566;2024-03-23T08:13:30;94850.81;;;11.34;85.40
25420;BME280;13354;48.174;11.566;2024-03-23T08:15:57;94853.34;;;11.23;87.33
25420;BME280;13354;48.174;11.566;2024-03-23T08:18:22;94856.06;;;11.16;88.33
25420;BME280;13354;48.174;11.566;2024-03-23T08:21:01;94870.53;;;11.13;90.02
25420;BME280;13354;48.174;11.566;2024-03-23T08:23:28;94884.03;;;11.05;91.74
25420;BME280;13354;48.174;11.566;2024-03-23T08:26:00;94890.22;;;10.93;92.40
25420;BME280;13354;48.174;11.566;2024-03-23T08:28:27;94947.50;;;10.87;95.12
25420;BME280;13354;48.174;11.566;2024-03-23T08:30:53;94938.84;;;10.60;92.76
25420;BME280;13354;48.174;11.566;2024-03-23T08:33:19;94936.50;;;10.38;91.82
25420;BME280;13354;48.174;11.566;2024-03-23T08:36:01;94933.88;;;10.38;93.31
25420;BME280;13354;48.174;11.566;2024-03-23T08:38:28;94951.59;;;10.11;93.30
25420;BME280;13354;48.174;11.566;2024-03-23T08:41:11;94951.00;;;10.09;93.43
25420;BME280;13354;48.174;11.566;2024-03-23T08:43:39;94949.75;;;10.12;93.32
25420;BME280;13354;48.174;11.566;2024-03-23T08:46:08;94953.66;;;10.09;94.42
25420;BME280;13354;48.174;11.566;2024-03-23T08:48:41;94954.22;;;10.11;94.02
25420;BME280;13354;48.174;11.566;2024-03-23T08:51:09;94966.25;;;9.94;93.16
25420;BME280;13354;48.174;11.566;2024-03-23T08:53:36;94964.63;;;10.00;93.93
25420;BME280;13354;48.174;11.566;2024-03-23T08:56:02;94968.53;;;9.90;92.74
25420;BME280;13354;48.174;11.566;2024-03-23T08:58:29;94975.66;;;9.83;92.90
25420;BME280;13354;48.174;11.566;2024-03-23T09:00:56;94979.09;;;9.84;92.64
25420;BME280;13354;48.174;11.566;2024-03-23T09:03:25;94988.44;;;9.93;93.00
25420;BME280;13354;48.174;11.566;2024-03-23T09:05:53;95001.06;;;9.91;92.83
25420;BME280;13354;48.174;11.566;2024-03-23T09:08:20;95004.28;;;9.86;94.32
25420;BME280;13354;48.174;11.566;2024-03-23T09:10:47;95006.75;;;9.81;94.62
25420;BME280;13354;48.174;11.566;2024-03-23T09:13:13;95010.81;;;9.77;94.42
25420;BME280;13354;48.174;11.566;2024-03-23T09:15:51;95004.94;;;9.68;95.63
25420;BME280;13354;48.174;11.566;2024-03-23T09:18:22;95003.09;;;9.69;97.19
25420;BME280;13354;48.174;11.566;2024-03-23T09:20:47;95006.34;;;9.78;97.59
25420;BME280;13354;48.174;11.566;2024-03-23T09:23:13;95007.16;;;9.85;98.10
25420;BME280;13354;48.174;11.566;2024-03-23T09:25:39;95008.38;;;9.82;98.26
25420;BME280;13354;48.174;11.566;2024-03-23T09:28:05;95014.25;;;9.64;96.61
25420;BME280;13354;48.174;11.566;2024-03-23T09:30:32;95002.25;;;9.55;92.53
25420;BME280;13354;48.174;11.566;2024-03-23T09:32:58;95010.59;;;9.59;95.51
25420;BME280;13354;48.174;11.566;2024-03-23T09:35:24;95015.66;;;9.60;97.76
25420;BME280;13354;48.174;11.566;2024-03-23T09:37:49;95022.00;;;9.66;100.00
25420;BME280;13354;48.174;11.566;2024-03-23T09:40:15;95023.38;;;9.42;97.94
25420;BME280;13354;48.174;11.566;2024-03-23T09:42:41;95029.06;;;9.32;97.26
25420;BME280;13354;48.174;11.566;2024-03-23T09:45:26;95022.13;;;9.25;93.77
25420;BME280;13354;48.174;11.566;2024-03-23T09:47:52;95030.66;;;9.27;92.88
25420;BME280;13354;48.174;11.566;2024-03-23T09:50:18;95052.19;;;9.30;92.51
25420;BME280;13354;48.174;11.566;2024-03-23T09:52:46;95032.06;;;9.23;89.08
25420;BME280;13354;48.174;11.566;2024-03-23T09:55:11;95046.47;;;9.20;90.11
25420;BME280;13354;48.174;11.566;2024-03-23T09:57:37;95057.28;;;9.25;90.72
25420;BME280;13354;48.174;11.566;2024-03-23T10:00:03;95052.13;;;9.04;87.73
25420;BME280;13354;48.174;11.566;2024-03-23T10:02:29;95065.50;;;8.95;87.13
25420;BME280;13354;48.174;11.566;2024-03-23T10:04:54;95065.94;;;9.06;87.66
25420;BME280;13354;48.174;11.566;2024-03-23T10:07:21;95063.91;;;9.08;89.50
25420;BME280;13354;48.174;11.566;2024-03-23T10:09:50;95074.53;;;9.28;91.71
25420;BME280;13354;48.174;11.566;2024-03-23T10:12:18;95064.16;;;9.19;92.88
25420;BME280;13354;48.174;11.566;2024-03-23T10:14:43;95075.53;;;9.13;94.00
25420;BME280;13354;48.174;11.566;2024-03-23T10:17:18;95075.16;;;9.30;94.48
25420;BME280;13354;48.174;11.566;2024-03-23T10:19:48;95076.63;;;8.91;87.31
25420;BME280;13354;48.174;11.566;2024-03-23T10:22:19;95071.09;;;8.79;85.15
25420;BME280;13354;48.174;11.566;2024-03-23T10:24:45;95078.56;;;8.69;84.85
25420;BME280;13354;48.174;11.566;2024-03-23T10:27:20;95079.19;;;8.71;85.17
25420;BME280;13354;48.174;11.566;2024-03-23T10:29:47;95083.59;;;8.64;86.08
25420;BME280;13354;48.174;11.566;2024-03-23T10:32:22;95086.72;;;8.74;88.04
25420;BME280;13354;48.174;11.566;2024-03-23T10:34:47;95069.97;;;8.60;90.08
25420;BME280;13354;48.174;11.566;2024-03-23T10:37:12;95069.69;;;8.77;91.13
25420;BME280;13354;48.174;11.566;2024-03-23T10:39:40;95076.75;;;8.69;92.19
25420;BME280;13354;48.174;11.566;2024-03-23T10:42:09;95091.00;;;8.82;91.96
25420;BME280;13354;48.174;11.566;2024-03-23T10:44:38;95102.13;;;8.70;92.20
25420;BME280;13354;48.174;11.566;2024-03-23T10:47:05;95104.78;;;8.77;93.18
25420;BME280;13354;48.174;11.566;2024-03-23T10:49:34;95104.84;;;8.84;93.84
25420;BME280;13354;48.174;11.566;2024-03-23T10:52:04;95100.72;;;8.75;91.88
25420;BME280;13354;48.174;11.566;2024-03-23T10:54:30;95126.25;;;8.67;88.28
25420;BME280;13354;48.174;11.566;2024-03-23T10:57:09;95136.72;;;8.89;86.97
25420;BME280;13354;48.174;11.566;2024-03-23T10:59:37;95127.25;;;8.66;83.10
25420;BME280;13354;48.174;11.566;2024-03-23T11:02:03;95141.66;;;8.64;83.01
25420;BME280;13354;48.174;11.566;2024-03-23T11:04:36;95138.69;;;8.74;82.86
25420;BME280;13354;48.174;11.566;2024-03-23T11:09:49;95148.97;;;8.62;82.17
25420;BME280;13354;48.174;11.566;2024-03-23T11:15:11;95169.44;;;8.60;83.01
25420;BME280;13354;48.174;11.566;2024-03-23T11:17:36;95171.88;;;8.61;82.41
25420;BME280;13354;48.174;11.566;2024-03-23T11:20:04;95177.34;;;8.60;82.51
25420;BME280;13354;48.174;11.566;2024-03-23T11:25:31;95180.63;;;8.62;82.59
25420;BME280;13354;48.174;11.566;2024-03-23T11:27:58;95161.13;;;8.63;81.74
25420;BME280;13354;48.174;11.566;2024-03-23T11:30:34;95126.72;;;8.78;82.31
25420;BME280;13354;48.174;11.566;2024-03-23T11:33:02;95129.16;;;8.79;81.21
25420;BME280;13354;48.174;11.566;2024-03-23T11:40:36;95148.50;;;8.86;81.22
25420;BME280;13354;48.174;11.566;2024-03-23T11:43:03;95165.19;;;8.93;79.10
25420;BME280;13354;48.174;11.566;2024-03-23T11:45:54;95162.00;;;9.05;77.50
25420;BME280;13354;48.174;11.566;2024-03-23T11:48:22;95150.47;;;9.12;73.59
25420;BME280;13354;48.174;11.566;2024-03-23T11:50:57;95163.66;;;9.12;73.16
25420;BME280;13354;48.174;11.566;2024-03-23T11:53:25;95153.94;;;9.19;71.22
25420;BME280;13354;48.174;11.566;2024-03-23T11:55:59;95150.38;;;9.40;71.67
25420;BME280;13354;48.174;11.566;2024-03-23T11:58:26;95129.44;;;9.32;70.40
25420;BME280;13354;48.174;11.566;2024-03-23T12:03:26;95139.38;;;9.30;70.49
25420;BME280;13354;48.174;11.566;2024-03-23T12:05:54;95144.38;;;9.12;70.19
25420;BME280;13354;48.174;11.566;2024-03-23T12:08:20;95160.03;;;9.13;69.66
25420;BME280;13354;48.174;11.566;2024-03-23T12:10:53;95154.94;;;9.12;68.75
25420;BME280;13354;48.174;11.566;2024-03-23T12:13:29;95154.75;;;9.13;68.64
25420;BME280;13354;48.174;11.566;2024-03-23T12:15:55;95146.88;;;9.27;67.25
25420;BME280;13354;48.174;11.566;2024-03-23T12:18:23;95150.50;;;9.19;65.18
25420;BME280;13354;48.174;11.566;2024-03-23T12:20:50;95143.22;;;9.28;65.92
25420;BME280;13354;48.174;11.566;2024-03-23T12:23:15;95144.44;;;9.25;65.63
25420;BME280;13354;48.174;11.566;2024-03-23T12:25:41;95143.25;;;9.34;65.17
25420;BME280;13354;48.174;11.566;2024-03-23T12:28:07;95137.38;;;9.39;64.95
25420;BME280;13354;48.174;11.566;2024-03-23T12:30:33;95141.03;;;9.38;63.74
25420;BME280;13354;48.174;11.566;2024-03-23T12:32:59;95140.03;;;9.39;63.04
25420;BME280;13354;48.174;11.566;2024-03-23T12:35:24;95128.69;;;9.52;63.22
25420;BME280;13354;48.174;11.566;2024-03-23T12:37:50;95120.97;;;9.57;62.10
25420;BME280;13354;48.174;11.566;2024-03-23T12:40:15;95137.00;;;9.49;61.04
25420;BME280;13354;48.174;11.566;2024-03-23T12:42:41;95148.56;;;9.41;59.87
25420;BME280;13354;48.174;11.566;2024-03-23T12:45:06;95143.91;;;9.50;59.54
25420;BME280;13354;48.174;11.566;2024-03-23T12:47:32;95128.66;;;9.45;59.78
25420;BME280;13354;48.174;11.566;2024-03-23T12:49:57;95132.91;;;9.46;59.97
25420;BME280;13354;48.174;11.566;2024-03-23T12:52:23;95126.03;;;9.52;59.88
25420;BME280;13354;48.174;11.566;2024-03-23T12:54:56;95126.78;;;9.32;60.01
25420;BME280;13354;48.174;11.566;2024-03-23T12:57:25;95133.13;;;9.44;59.78
25420;BME280;13354;48.174;11.566;2024-03-23T12:59:54;95133.34;;;9.43;60.31
25420;BME280;13354;48.174;11.566;2024-03-23T13:02:20;95123.34;;;9.38;60.07
25420;BME280;13354;48.174;11.566;2024-03-23T13:04:55;95126.53;;;9.27;59.87
25420;BME280;13354;48.174;11.566;2024-03-23T13:07:22;95140.41;;;9.36;60.28
25420;BME280;13354;48.174;11.566;2024-03-23T13:09:50;95143.84;;;9.30;60.22
25420;BME280;13354;48.174;11.566;2024-03-23T13:12:16;95152.19;;;9.33;60.67
25420;BME280;13354;48.174;11.566;2024-03-23T13:14:44;95151.19;;;9.41;61.19
25420;BME280;13354;48.174;11.566;2024-03-23T13:17:09;95137.03;;;9.55;61.59
25420;BME280;13354;48.174;11.566;2024-03-23T13:19:35;95128.31;;;9.61;59.98
25420;BME280;13354;48.174;11.566;2024-03-23T13:22:01;95121.63;;;9.72;58.88
25420;BME280;13354;48.174;11.566;2024-03-23T13:24:27;95109.00;;;9.67;58.67
25420;BME280;13354;48.174;11.566;2024-03-23T13:26:54;95088.47;;;9.70;57.44
25420;BME280;13354;48.174;11.566;2024-03-23T13:29:20;95095.38;;;9.64;58.60
25420;BME280;13354;48.174;11.566;2024-03-23T13:31:47;95099.41;;;9.53;57.05
25420;BME280;13354;48.174;11.566;2024-03-23T13:34:13;95100.88;;;9.69;57.12
25420;BME280;13354;48.174;11.566;2024-03-23T13:36:42;95110.78;;;9.47;56.96
25420;BME280;13354;48.174;11.566;2024-03-23T13:39:08;95107.34;;;9.47;56.90
25420;BME280;13354;48.174;11.566;2024-03-23T13:41:40;95120.94;;;9.43;56.80
25420;BME280;13354;48.174;11.566;2024-03-23T13:44:07;95112.19;;;9.43;57.26
25420;BME280;13354;48.174;11.566;2024-03-23T13:46:33;95110.38;;;9.43;58.23
25420;BME280;13354;48.174;11.566;2024-03-23T13:48:59;95135.50;;;9.26;59.13
25420;BME280;13354;48.174;11.566;2024-03-23T13:51:25;95138.88;;;9.07;61.69
25420;BME280;13354;48.174;11.566;2024-03-23T13:53:53;95146.66;;;8.80;63.48
25420;BME280;13354;48.174;11.566;2024-03-23T13:56:19;95183.97;;;8.49;65.62
25420;BME280;13354;48.174;11.566;2024-03-23T13:58:45;95178.44;;;8.22;68.46
25420;BME280;13354;48.174;11.566;2024-03-23T14:01:13;95184.22;;;8.11;71.60
25420;BME280;13354;48.174;11.566;2024-03-23T14:03:38;95183.69;;;7.80;73.13